Time;durP1;ratioP1;P1;durP2;ratioP2;P2;SDS_P1;SDS_P2;PMS_P1;PMS_P2;Temp;Humidity;BMP_temperature;BMP_pressure;BME280_temperature;BME280_humidity;BME280_pressure;Samples;Min_cycle;Max_cycle;Signal;HPM_P1;HPM_P2
2023/01/15 00:00:45;;;;;;;2.25;0.50;;;;;;;-148.88;100.00;75169.94;5061293;28;20051;-84
2023/01/15 00:03:10;;;;;;;1.80;0.55;;;;;;;-148.88;100.00;75188.22;5080119;28;20028;-84
2023/01/15 00:05:35;;;;;;;1.02;0.55;;;;;;;-148.88;100.00;75212.59;5080850;28;20032;-84
2023/01/15 00:08:01;;;;;;;2.15;0.60;;;;;;;-148.88;100.00;75218.69;5077675;28;20017;-83
2023/01/15 00:10:27;;;;;;;2.72;0.50;;;;;;;-148.88;100.00;75228.84;5075382;28;20028;-83
2023/01/15 00:12:52;;;;;;;2.00;0.65;;;;;;;-148.88;100.00;75224.78;5075448;28;20032;-83
2023/01/15 00:15:17;;;;;;;1.45;0.43;;;;;;;-148.88;100.00;75236.97;5057371;28;20119;-83
2023/01/15 00:17:42;;;;;;;2.85;0.63;;;;;;;-148.88;100.00;75234.94;5075926;28;20032;-84
2023/01/15 00:20:08;;;;;;;3.90;0.63;;;;;;;-148.88;100.00;75216.66;5077464;28;20020;-83
2023/01/15 00:22:34;;;;;;;1.88;0.40;;;;;;;-148.88;100.00;75236.97;5077028;28;20040;-83
2023/01/15 00:27:44;;;;;;;1.60;0.85;;;;;;;-148.88;100.00;75247.13;5078053;28;20047;-83
2023/01/15 00:30:12;;;;;;;0.50;0.20;;;;;;;-148.88;100.00;75253.22;5060903;28;20032;-83
2023/01/15 00:32:42;;;;;;;6.85;0.73;;;;;;;-148.88;100.00;75269.47;5078306;28;20103;-83
2023/01/15 00:35:12;;;;;;;1.05;0.30;;;;;;;-148.88;100.00;75275.56;5058913;28;20089;-84
2023/01/15 00:37:37;;;;;;;3.38;0.50;;;;;;;-148.88;100.00;75273.53;5058977;28;20040;-83
2023/01/15 00:40:03;;;;;;;0.60;0.40;;;;;;;-148.88;100.00;75285.69;5059049;28;20036;-84
2023/01/15 00:42:28;;;;;;;2.55;0.50;;;;;;;-148.88;100.00;75293.81;5060612;28;20028;-84
2023/01/15 00:44:53;;;;;;;1.90;0.22;;;;;;;-148.88;100.00;75301.94;5076160;28;20031;-83
2023/01/15 00:47:19;;;;;;;1.75;0.40;;;;;;;-148.88;100.00;75310.06;5056714;28;20020;-83
2023/01/15 00:49:44;;;;;;;3.35;0.40;;;;;;;-148.88;100.00;75303.97;5074691;28;20368;-83
2023/01/15 00:52:11;;;;;;;1.45;0.30;;;;;;;-148.88;100.00;75322.25;5074732;28;20021;-84
2023/01/15 00:54:36;;;;;;;1.58;0.45;;;;;;;-148.88;100.00;75324.28;5077483;28;20025;-84
2023/01/15 00:57:01;;;;;;;1.23;0.30;;;;;;;-148.88;100.00;75322.25;5059064;28;20028;-83
2023/01/15 00:59:27;;;;;;;1.27;0.47;;;;;;;-148.88;100.00;75328.34;5059296;28;20447;-84
2023/01/15 01:01:52;;;;;;;1.30;0.28;;;;;;;-148.88;100.00;75330.38;5059377;28;20029;-84
2023/01/15 01:04:17;;;;;;;1.50;0.45;;;;;;;-148.88;100.00;75338.50;5059784;28;20021;-84
2023/01/15 01:06:43;;;;;;;1.98;0.30;;;;;;;-148.88;100.00;75360.84;5058349;28;20085;-83
2023/01/15 01:09:17;;;;;;;0.57;0.30;;;;;;;-148.88;100.00;75371.00;5057886;28;20020;-83
2023/01/15 01:11:42;;;;;;;0.63;0.30;;;;;;;-148.88;100.00;75375.06;5077052;28;20078;-83
2023/01/15 01:14:10;;;;;;;1.42;0.57;;;;;;;-148.88;100.00;75381.16;5057911;28;20028;-83
2023/01/15 01:16:37;;;;;;;0.82;0.20;;;;;;;-148.88;100.00;75358.81;5076050;28;20025;-83
2023/01/15 01:19:07;;;;;;;1.92;0.30;;;;;;;-148.88;100.00;75381.16;5076642;28;20402;-84
2023/01/15 01:21:33;;;;;;;0.77;0.30;;;;;;;-148.88;100.00;75360.84;5103629;22;20020;-92
2023/01/15 01:24:00;;;;;;;2.55;0.40;;;;;;;-148.88;100.00;75354.75;5113991;28;20024;-92
2023/01/15 01:26:26;;;;;;;0.45;0.20;;;;;;;-148.88;100.00;75346.63;5114319;28;20035;-91
2023/01/15 01:28:52;;;;;;;0.85;0.30;;;;;;;-148.88;100.00;75332.41;5107495;28;20035;-92
2023/01/15 01:31:21;;;;;;;1.85;0.20;;;;;;;-148.88;96.63;75310.06;5108392;28;20020;-93
2023/01/15 01:33:52;;;;;;;0.93;0.32;;;;;;;-148.88;97.05;75318.19;5129042;22;20091;-86
2023/01/15 01:36:18;;;;;;;1.35;0.28;;;;;;;-148.88;95.18;75310.06;5073613;28;20020;-86
2023/01/15 01:38:48;;;;;;;1.73;0.55;;;;;;;-148.88;98.20;75316.16;5073531;28;20032;-86
2023/01/15 01:41:14;;;;;;;0.98;0.30;;;;;;;-148.88;100.00;75330.38;5073367;28;20032;-86
2023/01/15 01:44:01;;;;;;;0.75;0.15;;;;;;;-148.88;100.00;75322.25;5073823;28;20081;-86
2023/01/15 01:46:29;;;;;;;2.97;0.20;;;;;;;-148.88;100.00;75322.25;5073731;28;20390;-86
2023/01/15 01:49:13;;;;;;;0.70;0.20;;;;;;;-148.88;99.06;75314.13;5073186;28;20016;-86
2023/01/15 01:51:47;;;;;;;2.55;0.82;;;;;;;-148.88;97.88;75297.88;5073789;28;20029;-85
2023/01/15 01:54:16;;;;;;;1.38;0.40;;;;;;;-148.88;100.00;75322.25;5072993;28;20035;-86
2023/01/15 01:56:42;;;;;;;0.75;0.22;;;;;;;-148.88;100.00;75350.69;5073178;28;20070;-85
2023/01/15 01:59:08;;;;;;;0.98;0.28;;;;;;;-148.88;100.00;75334.44;5072849;28;20025;-86
2023/01/15 02:01:34;;;;;;;3.17;0.50;;;;;;;-148.88;100.00;75346.63;5072616;28;20560;-85
2023/01/15 02:03:59;;;;;;;2.17;0.30;;;;;;;-148.88;100.00;75358.81;5073164;28;20028;-85
2023/01/15 02:06:26;;;;;;;3.95;0.45;;;;;;;-148.88;100.00;75358.81;5073764;28;20042;-86
2023/01/15 02:08:52;;;;;;;3.75;0.57;;;;;;;-148.88;100.00;75368.97;5072911;28;20029;-85
2023/01/15 02:11:25;;;;;;;0.90;0.35;;;;;;;-148.88;100.00;75368.97;5073649;28;20116;-85
2023/01/15 02:13:59;;;;;;;2.92;0.50;;;;;;;-148.88;100.00;75350.69;5073058;28;20122;-86
2023/01/15 02:16:55;;;;;;;2.00;0.40;;;;;;;-148.88;100.00;75362.88;5072976;28;20082;-86
2023/01/15 02:19:36;;;;;;;2.88;0.45;;;;;;;-148.88;100.00;75348.66;5073183;28;20024;-84
2023/01/15 02:22:20;;;;;;;3.25;0.63;;;;;;;-148.88;100.00;75350.69;5073831;28;20122;-84
2023/01/15 02:25:03;;;;;;;3.00;0.40;;;;;;;-148.88;100.00;75342.56;5072520;28;20474;-86
2023/01/15 02:27:29;;;;;;;4.30;0.60;;;;;;;-148.88;100.00;75338.50;5072711;28;20115;-86
2023/01/15 02:30:05;;;;;;;1.77;0.50;;;;;;;-148.88;100.00;75356.78;5072155;28;20052;-85
2023/01/15 02:32:33;;;;;;;2.90;0.60;;;;;;;-148.88;100.00;75338.50;5071788;28;20020;-86
2023/01/15 02:35:06;;;;;;;2.90;0.50;;;;;;;-148.88;100.00;75354.75;5072984;28;20082;-86
2023/01/15 02:37:35;;;;;;;1.95;0.40;;;;;;;-148.88;100.00;75346.63;5072774;28;20120;-85
2023/01/15 02:40:25;;;;;;;3.47;0.60;;;;;;;-148.88;100.00;75342.56;5072723;28;20029;-85
2023/01/15 02:43:03;;;;;;;2.08;0.90;;;;;;;-148.88;100.00;75338.50;5072789;28;20035;-85
2023/01/15 02:45:54;;;;;;;2.90;0.73;;;;;;;-148.88;100.00;75334.44;5072670;28;20024;-85
2023/01/15 02:48:25;;;;;;;4.47;0.68;;;;;;;-148.88;100.00;75336.47;5072642;28;20024;-85
2023/01/15 02:51:25;;;;;;;2.25;0.50;;;;;;;-148.88;100.00;75330.38;5071928;28;20021;-85
2023/01/15 02:54:05;;;;;;;1.35;0.63;;;;;;;-148.88;100.00;75342.56;5072999;28;20025;-85
2023/01/15 02:56:57;;;;;;;2.58;0.73;;;;;;;-148.88;100.00;75338.50;5074265;28;20020;-85
2023/01/15 02:59:36;;;;;;;2.63;0.93;;;;;;;-148.88;100.00;75320.22;5073307;28;20025;-85
2023/01/15 03:02:07;;;;;;;1.88;0.70;;;;;;;-148.88;100.00;75324.28;5072232;28;20029;-86
2023/01/15 03:04:54;;;;;;;5.40;1.13;;;;;;;-148.88;100.00;75330.38;5072660;28;20127;-85
2023/01/15 03:07:32;;;;;;;3.33;1.10;;;;;;;-148.88;100.00;75324.28;5095137;28;20044;-85
2023/01/15 03:10:21;;;;;;;1.92;0.80;;;;;;;-148.88;100.00;75328.34;5093887;28;20024;-87
2023/01/15 03:13:02;;;;;;;2.10;0.80;;;;;;;-148.88;100.00;75328.34;5064342;28;20037;-87
2023/01/15 03:19:09;;;;;;;3.60;0.80;;;;;;;-148.88;100.00;75334.44;5067246;28;20039;-86
2023/01/15 03:21:49;;;;;;;4.32;1.02;;;;;;;-148.88;100.00;75326.31;5075907;28;20048;-87
2023/01/15 03:24:34;;;;;;;4.18;1.33;;;;;;;-148.88;100.00;75324.28;5076244;28;20107;-87
2023/01/15 03:27:20;;;;;;;3.47;0.98;;;;;;;-148.88;100.00;75326.31;5076880;28;20025;-85
2023/01/15 03:30:09;;;;;;;4.70;1.02;;;;;;;-148.88;100.00;75318.19;5083948;28;20533;-87
2023/01/15 03:32:38;;;;;;;2.50;1.30;;;;;;;-148.88;100.00;75326.31;5076877;28;20502;-87
2023/01/15 03:35:27;;;;;;;4.35;1.17;;;;;;;-148.88;100.00;75326.31;5077141;28;20028;-87
2023/01/15 03:38:03;;;;;;;2.50;0.98;;;;;;;-148.88;100.00;75306.00;5077640;28;20032;-86
2023/01/15 03:40:45;;;;;;;2.67;1.30;;;;;;;-148.88;100.00;75285.69;5077594;28;20059;-86
2023/01/15 03:46:30;;;;;;;6.30;1.25;;;;;;;-148.88;100.00;75310.06;5077007;28;20032;-87
2023/01/15 03:49:06;;;;;;;6.28;2.45;;;;;;;-148.88;100.00;75301.94;5075389;28;20497;-86
2023/01/15 03:52:12;;;;;;;5.07;1.30;;;;;;;-148.88;100.00;75289.75;5076620;28;20024;-86
2023/01/15 03:55:04;;;;;;;4.40;1.17;;;;;;;-148.88;100.00;75289.75;5063172;28;20105;-86
2023/01/15 03:57:51;;;;;;;4.32;1.23;;;;;;;-148.88;100.00;75283.66;5076995;28;20052;-85
2023/01/15 04:00:27;;;;;;;3.42;1.30;;;;;;;-148.88;100.00;75287.72;5076895;28;20059;-86
2023/01/15 04:03:05;;;;;;;2.33;0.90;;;;;;;-148.88;100.00;75289.75;5076141;28;20021;-85
2023/01/15 04:05:44;;;;;;;4.28;1.13;;;;;;;-148.88;100.00;75297.88;5075537;28;20028;-86
2023/01/15 04:08:19;;;;;;;3.45;1.20;;;;;;;-148.88;100.00;75297.88;5075838;28;20029;-86
2023/01/15 04:11:20;;;;;;;17.35;1.60;;;;;;;-148.88;100.00;75303.97;5075543;28;20028;-86
2023/01/15 04:13:49;;;;;;;4.55;1.10;;;;;;;-148.88;100.00;75291.78;5064758;28;20059;-86
2023/01/15 04:16:40;;;;;;;5.22;1.25;;;;;;;-148.88;100.00;75281.66;5075467;28;20024;-86
2023/01/15 04:19:06;;;;;;;4.25;1.10;;;;;;;-148.88;100.00;75269.47;5075067;28;20103;-86
2023/01/15 04:21:34;;;;;;;3.25;0.90;;;;;;;-148.88;100.00;75291.78;5075360;28;20124;-86
2023/01/15 04:24:09;;;;;;;2.42;0.90;;;;;;;-148.88;100.00;75285.69;5075631;28;20020;-85
2023/01/15 04:26:50;;;;;;;5.43;1.10;;;;;;;-148.88;100.00;75281.66;5075012;28;20406;-85
2023/01/15 04:29:37;;;;;;;4.70;1.20;;;;;;;-148.88;100.00;75273.53;5075944;28;20036;-85
2023/01/15 04:35:11;;;;;;;3.65;1.00;;;;;;;-148.88;100.00;75281.66;5034205;28;20124;-85
2023/01/15 04:37:36;;;;;;;4.17;1.00;;;;;;;-148.88;100.00;75285.69;5075472;28;20024;-86
2023/01/15 04:40:02;;;;;;;9.25;1.40;;;;;;;-148.88;100.00;75289.75;5075319;28;20261;-85
2023/01/15 04:45:14;;;;;;;5.93;1.38;;;;;;;-148.88;100.00;75279.59;5077310;28;20163;-84
2023/01/15 04:47:40;;;;;;;2.92;1.10;;;;;;;-148.88;100.00;75277.59;5075421;28;20423;-86
2023/01/15 04:50:16;;;;;;;7.22;1.13;;;;;;;-148.88;100.00;75281.66;5075673;28;20020;-85
2023/01/15 04:52:43;;;;;;;2.53;0.90;;;;;;;-148.88;100.00;75277.59;5075006;28;20020;-86
2023/01/15 04:55:09;;;;;;;5.38;1.50;;;;;;;-148.88;100.00;75273.53;5075818;28;20479;-87
2023/01/15 04:57:35;;;;;;;5.25;0.95;;;;;;;-148.88;100.00;75265.41;5075677;28;20126;-85
2023/01/15 05:00:03;;;;;;;4.63;0.93;;;;;;;-148.88;100.00;75259.31;5075328;28;20025;-84
2023/01/15 05:02:29;;;;;;;4.50;0.95;;;;;;;-148.88;100.00;75273.53;5080834;22;20031;-83
2023/01/15 05:04:54;;;;;;;3.88;1.08;;;;;;;-148.88;100.00;75265.41;5038352;28;20041;-83
2023/01/15 05:07:19;;;;;;;3.15;1.00;;;;;;;-148.88;100.00;75255.25;5040043;28;20116;-83
2023/01/15 05:09:46;;;;;;;4.40;1.10;;;;;;;-148.88;100.00;75273.53;5040231;28;20036;-84
2023/01/15 05:12:11;;;;;;;3.65;1.05;;;;;;;-148.88;100.00;75267.44;5057332;28;20099;-80
2023/01/15 05:14:36;;;;;;;4.82;1.17;;;;;;;-148.88;100.00;75269.47;5056945;28;20499;-79
2023/01/15 05:17:02;;;;;;;3.35;1.45;;;;;;;-148.88;100.00;75261.34;5040101;28;20454;-79
2023/01/15 05:19:27;;;;;;;4.63;1.20;;;;;;;-148.88;100.00;75269.47;5058185;28;20028;-80
2023/01/15 05:21:52;;;;;;;7.15;1.02;;;;;;;-148.88;100.00;75271.50;5058442;28;20304;-81
2023/01/15 05:24:18;;;;;;;3.78;1.40;;;;;;;-148.88;100.00;75273.53;5058638;28;20035;-81
2023/01/15 05:26:43;;;;;;;9.10;1.42;;;;;;;-148.88;100.00;75269.47;5058637;28;20059;-81
2023/01/15 05:29:12;;;;;;;4.38;1.48;;;;;;;-148.88;100.00;75269.47;5059068;28;20036;-81
2023/01/15 05:31:38;;;;;;;1.98;0.73;;;;;;;-148.88;100.00;75265.41;5059389;28;20025;-82
2023/01/15 05:34:03;;;;;;;14.05;1.08;;;;;;;-148.88;100.00;75277.59;5059833;28;20059;-81
2023/01/15 05:36:31;;;;;;;5.80;1.00;;;;;;;-148.88;100.00;75271.50;5057254;28;20029;-81
2023/01/15 05:39:00;;;;;;;5.40;1.20;;;;;;;-148.88;100.00;75275.56;5039833;28;20032;-81
2023/01/15 05:44:11;;;;;;;2.40;0.70;;;;;;;-148.88;100.00;75289.75;5057366;28;20509;-81
2023/01/15 05:46:38;;;;;;;3.63;0.82;;;;;;;-148.88;100.00;75277.59;5039466;28;20021;-79
2023/01/15 05:49:07;;;;;;;5.75;1.13;;;;;;;-148.88;100.00;75281.66;5039032;28;20032;-81
2023/01/15 05:51:35;;;;;;;6.60;1.25;;;;;;;-148.88;100.00;75289.75;5039188;28;20021;-81
2023/01/15 05:54:01;;;;;;;7.18;1.08;;;;;;;-148.88;100.00;75269.47;5040149;28;20025;-80
2023/01/15 05:56:26;;;;;;;4.72;0.90;;;;;;;-148.88;100.00;75277.59;5039244;28;20025;-81
2023/01/15 05:58:52;;;;;;;4.53;1.33;;;;;;;-148.88;100.00;75289.75;5039643;28;20079;-80
2023/01/15 06:01:17;;;;;;;3.92;1.17;;;;;;;-148.88;100.00;75279.59;5039540;28;20012;-81
2023/01/15 06:03:43;;;;;;;6.15;1.33;;;;;;;-148.88;100.00;75283.66;5039337;28;20028;-81
2023/01/15 06:06:13;;;;;;;3.38;1.15;;;;;;;-148.88;100.00;75277.59;5058573;28;20021;-82
2023/01/15 06:08:38;;;;;;;6.32;1.35;;;;;;;-148.88;100.00;75279.59;5041277;28;20021;-81
2023/01/15 06:11:05;;;;;;;4.35;1.20;;;;;;;-148.88;100.00;75275.56;5038898;28;20075;-80
2023/01/15 06:13:32;;;;;;;8.80;0.95;;;;;;;-148.88;100.00;75277.59;5039340;28;20051;-81
2023/01/15 06:15:58;;;;;;;4.65;1.20;;;;;;;-148.88;100.00;75277.59;5057527;28;20051;-81
2023/01/15 06:18:24;;;;;;;5.72;1.00;;;;;;;-148.88;100.00;75291.78;5038751;28;20033;-79
2023/01/15 06:20:49;;;;;;;4.18;0.95;;;;;;;-148.88;100.00;75281.66;5037547;28;20501;-80
2023/01/15 06:23:16;;;;;;;8.05;1.23;;;;;;;-148.88;100.00;75277.59;5038046;28;20036;-80
2023/01/15 06:25:41;;;;;;;6.78;2.10;;;;;;;-148.88;100.00;75285.69;5037720;28;20021;-80
2023/01/15 06:28:07;;;;;;;4.30;0.95;;;;;;;-148.88;100.00;75283.66;5038351;28;20031;-80
2023/01/15 06:30:34;;;;;;;4.35;1.33;;;;;;;-148.88;100.00;75269.47;5038263;28;20032;-80
2023/01/15 06:33:00;;;;;;;8.23;1.75;;;;;;;-148.88;100.00;75273.53;5037991;28;20021;-79
2023/01/15 06:35:25;;;;;;;3.55;1.15;;;;;;;-148.88;100.00;75285.69;5038466;28;20052;-80
2023/01/15 06:37:51;;;;;;;7.03;1.40;;;;;;;-148.88;100.00;75281.66;5038171;28;20057;-81
2023/01/15 06:40:16;;;;;;;5.80;1.92;;;;;;;-148.88;100.00;75277.59;5057102;28;20025;-81
2023/01/15 06:48:09;;;;;;;5.03;1.27;;;;;;;-148.88;100.00;75281.66;5059083;28;20092;-80
2023/01/15 06:50:35;;;;;;;4.70;1.27;;;;;;;-148.88;100.00;75291.78;5041930;28;20021;-79
2023/01/15 06:53:00;;;;;;;3.70;1.05;;;;;;;-148.88;100.00;75285.69;5040325;28;20108;-79
2023/01/15 06:55:25;;;;;;;4.28;1.02;;;;;;;-148.88;100.00;75281.66;5059374;28;20082;-80
2023/01/15 06:57:51;;;;;;;4.82;1.00;;;;;;;-148.88;100.00;75269.47;5041938;28;20104;-80
2023/01/15 07:00:16;;;;;;;9.35;1.80;;;;;;;-148.88;100.00;75261.34;5060325;28;20029;-80
2023/01/15 07:02:42;;;;;;;6.30;1.17;;;;;;;-148.88;100.00;75265.41;5041655;28;20426;-79
2023/01/15 07:05:07;;;;;;;6.78;1.40;;;;;;;-148.88;100.00;75273.53;5041814;28;20063;-79
2023/01/15 07:07:33;;;;;;;7.65;1.30;;;;;;;-148.88;100.00;75283.66;5041500;28;20536;-80
2023/01/15 07:09:59;;;;;;;6.53;1.48;;;;;;;-148.88;100.00;75279.59;5060139;28;20028;-80
2023/01/15 07:12:24;;;;;;;6.45;1.52;;;;;;;-148.88;100.00;75277.59;5060083;28;20112;-80
2023/01/15 07:14:50;;;;;;;4.55;1.30;;;;;;;-148.88;100.00;75273.53;5041573;28;20170;-81
2023/01/15 07:17:16;;;;;;;4.60;1.27;;;;;;;-148.88;100.00;75265.41;5060398;28;20025;-80
2023/01/15 07:19:41;;;;;;;8.50;1.23;;;;;;;-148.88;100.00;75277.59;5060276;28;20043;-80
2023/01/15 07:22:08;;;;;;;15.32;1.70;;;;;;;-148.88;100.00;75287.72;5060198;28;20016;-80
2023/01/15 07:24:33;;;;;;;8.23;1.42;;;;;;;-148.88;100.00;75281.66;5059011;28;20075;-79
2023/01/15 07:26:58;;;;;;;4.28;1.40;;;;;;;-148.88;100.00;75279.59;5059059;28;20083;-79
2023/01/15 07:29:24;;;;;;;7.78;1.48;;;;;;;-148.88;100.00;75285.69;5041037;28;20465;-79
2023/01/15 07:31:50;;;;;;;5.22;1.40;;;;;;;-148.88;100.00;75285.69;5041692;28;20052;-80
2023/01/15 07:34:15;;;;;;;8.10;1.23;;;;;;;-148.88;100.00;75279.59;5040937;28;20474;-81
2023/01/15 07:36:41;;;;;;;4.85;1.00;;;;;;;-148.88;100.00;75285.69;5040790;28;20025;-79
2023/01/15 07:39:08;;;;;;;8.65;1.63;;;;;;;-148.88;100.00;75277.59;5041237;28;20021;-78
2023/01/15 07:49:47;;;;;;;5.47;1.45;;;;;;;-148.88;100.00;75275.56;5058918;28;20178;-79
2023/01/15 07:52:20;;;;;;;4.20;1.20;;;;;;;-148.88;100.00;75285.69;5040224;28;20021;-80
2023/01/15 07:54:47;;;;;;;6.93;1.80;;;;;;;-148.88;100.00;75293.81;5041453;28;20025;-79
2023/01/15 07:57:15;;;;;;;3.55;1.25;;;;;;;-148.88;100.00;75273.53;5040800;28;20032;-79
2023/01/15 07:59:40;;;;;;;6.47;1.40;;;;;;;-148.88;100.00;75283.66;5041045;28;20103;-79
2023/01/15 08:02:06;;;;;;;4.65;1.40;;;;;;;-148.88;100.00;75287.72;5059771;28;20110;-80
2023/01/15 08:04:31;;;;;;;4.93;1.35;;;;;;;-148.88;100.00;75279.59;5040949;28;20479;-78
2023/01/15 08:07:02;;;;;;;6.35;1.33;;;;;;;-148.88;100.00;75295.84;5040883;28;20482;-79
2023/01/15 08:09:28;;;;;;;5.15;1.27;;;;;;;-148.88;100.00;75293.81;5040294;28;20028;-80
2023/01/15 08:17:22;;;;;;;4.25;1.13;;;;;;;-148.88;100.00;75291.78;5057847;28;20032;-79
2023/01/15 08:19:47;;;;;;;4.07;1.30;;;;;;;-148.88;100.00;75287.72;5039321;28;20036;-79
2023/01/15 08:22:12;;;;;;;6.25;1.50;;;;;;;-148.88;100.00;75293.81;5039568;28;20017;-81
2023/01/15 08:24:38;;;;;;;6.22;1.58;;;;;;;-148.88;100.00;75279.59;5039518;28;20562;-84
2023/01/15 08:27:03;;;;;;;5.90;1.75;;;;;;;-148.88;100.00;75275.56;5041178;28;20029;-83
2023/01/15 08:29:29;;;;;;;7.68;2.20;;;;;;;-148.88;100.00;75289.75;5040953;28;20025;-82
2023/01/15 08:31:54;;;;;;;7.72;1.45;;;;;;;-148.88;100.00;75283.66;5039393;28;20478;-83
2023/01/15 08:34:20;;;;;;;7.07;2.08;;;;;;;-148.88;100.00;75269.47;5038731;28;20025;-82
2023/01/15 08:36:45;;;;;;;4.35;1.27;;;;;;;-148.88;100.00;75289.75;5038730;28;20031;-82
2023/01/15 08:39:10;;;;;;;7.60;1.40;;;;;;;-148.88;99.71;75281.66;5038777;28;20033;-82
2023/01/15 08:41:36;;;;;;;5.80;1.58;;;;;;;-148.88;99.52;75269.47;5038731;28;20064;-83
2023/01/15 08:44:01;;;;;;;5.07;1.42;;;;;;;-148.88;99.57;75285.69;5056776;28;20068;-82
2023/01/15 08:46:26;;;;;;;5.95;1.63;;;;;;;-148.88;99.67;75273.53;5039711;28;20021;-83
2023/01/15 08:48:52;;;;;;;9.32;1.73;;;;;;;-148.88;100.00;75277.59;5057704;28;20029;-82
2023/01/15 08:51:18;;;;;;;10.35;1.65;;;;;;;-148.88;98.90;75269.47;5040382;28;20171;-82
2023/01/15 08:53:44;;;;;;;6.50;1.40;;;;;;;-148.88;99.33;75269.47;5057677;28;20401;-83
2023/01/15 08:56:16;;;;;;;8.60;1.25;;;;;;;-148.88;99.11;75257.28;5038864;28;20091;-82
2023/01/15 08:58:42;;;;;;;3.88;1.15;;;;;;;-148.88;99.54;75257.28;5039606;28;20029;-83
2023/01/15 09:01:09;;;;;;;7.35;1.77;;;;;;;-148.88;100.00;75271.50;5057676;28;20107;-84
2023/01/15 09:03:35;;;;;;;4.20;1.25;;;;;;;-148.88;99.83;75287.72;5044583;28;20029;-84
2023/01/15 09:06:01;;;;;;;5.30;1.25;;;;;;;-148.88;99.28;75281.66;5019078;28;20107;-82
2023/01/15 09:08:28;;;;;;;7.25;1.52;;;;;;;-148.88;100.00;75283.66;5018919;28;20032;-83
2023/01/15 09:11:12;;;;;;;5.30;1.60;;;;;;;-148.88;100.00;75283.66;5017545;28;20029;-83
2023/01/15 09:13:37;;;;;;;6.05;1.40;;;;;;;-148.88;100.00;75293.81;5018566;28;20021;-82
2023/01/15 09:16:04;;;;;;;5.38;1.10;;;;;;;-148.88;98.65;75293.81;5035570;28;20043;-82
2023/01/15 09:18:30;;;;;;;6.10;1.80;;;;;;;-148.88;98.48;75293.81;5017526;28;20079;-82
2023/01/15 09:20:55;;;;;;;4.47;1.08;;;;;;;-148.88;95.39;75273.53;5019515;28;20115;-84
2023/01/15 09:23:21;;;;;;;7.45;1.58;;;;;;;-148.88;92.95;75277.59;5037615;28;20085;-84
2023/01/15 09:26:00;;;;;;;6.88;2.00;;;;;;;-148.88;93.00;75281.66;5019794;28;20025;-83
2023/01/15 09:28:27;;;;;;;4.05;1.35;;;;;;;-148.88;93.26;75289.75;5037468;28;20029;-82
2023/01/15 09:30:53;;;;;;;6.70;1.63;;;;;;;-148.88;92.81;75289.75;5019998;28;20040;-83
2023/01/15 09:33:18;;;;;;;4.65;1.20;;;;;;;-148.88;91.48;75293.81;5038385;28;20021;-83
2023/01/15 09:35:43;;;;;;;4.22;1.52;;;;;;;-148.88;93.67;75293.81;5029507;28;20585;-83
2023/01/15 09:38:14;;;;;;;5.00;2.80;;;;;;;-148.88;93.13;75291.78;5039804;28;20025;-84
2023/01/15 09:40:45;;;;;;;10.20;2.65;;;;;;;-148.88;93.09;75291.78;5040336;28;20032;-83
2023/01/15 09:43:39;;;;;;;6.35;1.60;;;;;;;-148.88;93.94;75314.13;5057623;28;20033;-84
2023/01/15 09:46:13;;;;;;;7.22;1.73;;;;;;;-148.88;94.02;75314.13;5040375;28;20024;-83
2023/01/15 09:49:03;;;;;;;3.70;1.05;;;;;;;-148.88;92.07;75310.06;5039282;28;20104;-84
2023/01/15 09:51:57;;;;;;;5.38;1.25;;;;;;;-148.88;91.92;75308.03;5039102;28;20018;-83
2023/01/15 09:54:49;;;;;;;4.45;1.10;;;;;;;-148.88;91.85;75318.19;5021381;28;20087;-82
2023/01/15 09:57:16;;;;;;;6.80;1.00;;;;;;;-148.88;93.27;75318.19;5018455;28;20033;-82
2023/01/15 09:59:47;;;;;;;4.28;1.15;;;;;;;-148.88;94.21;75334.44;5018658;28;20041;-83
2023/01/15 10:02:23;;;;;;;4.97;1.33;;;;;;;-148.88;93.88;75334.44;5018586;28;20018;-83
2023/01/15 10:04:56;;;;;;;4.32;1.13;;;;;;;-148.88;94.43;75299.91;5017885;28;20037;-82
2023/01/15 10:07:29;;;;;;;3.33;1.13;;;;;;;-148.88;94.47;75281.66;5018544;28;20025;-83
2023/01/15 10:10:06;;;;;;;7.18;1.15;;;;;;;-148.88;94.43;75293.81;5018717;28;20037;-83
2023/01/15 10:12:35;;;;;;;4.15;1.58;;;;;;;-148.88;94.43;75281.66;5035859;28;20025;-82
2023/01/15 10:15:12;;;;;;;4.15;1.13;;;;;;;-148.88;95.06;75273.53;5018158;28;20025;-83
2023/01/15 10:17:44;;;;;;;3.50;1.48;;;;;;;-148.88;94.82;75261.34;5017664;28;20071;-83
2023/01/15 10:20:16;;;;;;;4.60;1.55;;;;;;;-148.88;94.17;75228.84;5030894;28;20027;-83
2023/01/15 10:23:04;;;;;;;5.88;2.08;;;;;;;-148.88;89.83;75234.94;5037630;28;20486;-83
2023/01/15 10:25:38;;;;;;;3.47;1.15;;;;;;;-148.88;88.14;75220.72;5037157;28;20032;-83
2023/01/15 10:28:18;;;;;;;5.32;1.20;;;;;;;-148.88;87.84;75218.69;5054591;28;20025;-82
2023/01/15 10:30:49;;;;;;;4.88;1.02;;;;;;;-148.88;84.49;75190.25;5054329;28;20048;-81
2023/01/15 10:33:39;;;;;;;6.28;1.00;;;;;;;-148.88;83.79;75186.19;5038418;28;20052;-83
2023/01/15 10:36:16;;;;;;;6.63;1.40;;;;;;;-148.88;84.28;75165.88;5038232;28;20029;-83
2023/01/15 10:39:00;;;;;;;5.57;1.33;;;;;;;-148.88;82.58;75165.88;5037954;28;20024;-82
2023/01/15 10:41:48;;;;;;;1.77;0.80;;;;;;;-148.88;79.98;75171.97;5055556;28;20436;-84
2023/01/15 10:44:26;;;;;;;4.20;1.15;;;;;;;-148.88;83.11;75137.44;5037618;28;20059;-83
2023/01/15 10:46:58;;;;;;;5.13;1.58;;;;;;;-148.88;83.46;75139.47;5055533;28;20024;-83
2023/01/15 10:49:27;;;;;;;3.15;1.17;;;;;;;-148.88;80.80;75180.09;5037747;28;20083;-83
2023/01/15 10:52:06;;;;;;;6.00;1.50;;;;;;;-148.88;82.64;75174.00;5055063;28;20021;-82
2023/01/15 10:54:37;;;;;;;7.15;1.33;;;;;;;-148.88;79.60;75200.41;5055753;28;20459;-82
2023/01/15 10:57:12;;;;;;;2.20;1.02;;;;;;;-148.88;79.44;75176.03;5037206;28;20057;-82
2023/01/15 10:59:55;;;;;;;2.60;0.95;;;;;;;-148.88;77.91;75151.66;5037336;28;20047;-82
2023/01/15 11:02:36;;;;;;;3.13;1.05;;;;;;;-148.88;78.08;75180.09;5054552;28;20351;-81
2023/01/15 11:05:03;;;;;;;4.88;1.10;;;;;;;-148.88;76.46;75147.59;5036141;28;20048;-81
2023/01/15 11:07:44;;;;;;;5.35;0.95;;;;;;;-148.88;77.41;75163.84;5035516;28;20017;-82
2023/01/15 11:10:13;;;;;;;2.47;1.10;;;;;;;-148.88;77.85;75184.16;5037849;28;20021;-81
2023/01/15 11:21:17;;;;;;;10.77;1.52;;;;;;;-148.88;77.70;75184.16;5055592;28;20032;-83
2023/01/15 11:23:44;;;;;;;6.28;1.17;;;;;;;-148.88;79.80;75202.44;5036724;28;20028;-82
2023/01/15 11:26:18;;;;;;;10.40;1.83;;;;;;;-148.88;79.51;75188.22;5037214;28;20021;-82
2023/01/15 11:28:45;;;;;;;3.53;1.08;;;;;;;-148.88;78.87;75200.41;5037017;28;20048;-82
2023/01/15 11:31:12;;;;;;;2.78;1.02;;;;;;;-148.88;79.73;75208.53;5054644;28;20021;-82
2023/01/15 11:33:38;;;;;;;3.83;0.80;;;;;;;-148.88;81.47;75214.63;5054384;28;20033;-81
2023/01/15 11:36:06;;;;;;;5.07;1.20;;;;;;;-148.88;81.19;75224.78;5058032;28;20029;-82
2023/01/15 11:38:46;;;;;;;4.72;1.15;;;;;;;-148.88;80.45;75204.47;5057489;28;20036;-82
2023/01/15 11:52:54;;;;;;;6.53;1.00;;;;;;;-148.88;81.51;75192.28;5059260;28;20379;-82
2023/01/15 11:55:22;;;;;;;7.40;1.30;;;;;;;-148.88;80.04;75206.50;5041045;28;20021;-82
2023/01/15 11:57:51;;;;;;;4.90;1.02;;;;;;;-148.88;80.86;75192.28;5040919;28;20482;-81
2023/01/15 12:00:24;;;;;;;2.78;0.77;;;;;;;-148.88;81.09;75208.53;5041047;28;20039;-81
2023/01/15 12:02:53;;;;;;;6.40;1.08;;;;;;;-148.88;80.87;75206.50;5059404;28;20025;-81
2023/01/15 12:05:24;;;;;;;5.50;0.98;;;;;;;-148.88;80.16;75200.41;5059418;28;20493;-82
2023/01/15 12:07:53;;;;;;;2.20;0.82;;;;;;;-148.88;80.49;75202.44;5041732;28;20028;-81
2023/01/15 12:13:52;;;;;;;3.55;1.02;;;;;;;-148.88;81.21;75212.59;5059223;28;20500;-83
2023/01/15 12:16:36;;;;;;;4.68;0.95;;;;;;;-148.88;81.26;75204.47;5039814;28;20052;-82
2023/01/15 12:19:16;;;;;;;;;;;;;;;-148.88;81.09;75204.47;5038801;28;20483;-81
2023/01/15 12:21:54;;;;;;;4.05;1.00;;;;;;;-148.88;79.83;75192.28;5058516;28;19913;-83
2023/01/15 12:24:34;;;;;;;3.30;1.10;;;;;;;-148.88;81.39;75186.19;5065324;28;20049;-83
2023/01/15 12:27:15;;;;;;;2.20;0.80;;;;;;;-148.88;79.76;75184.16;5040196;28;20115;-82
2023/01/15 12:30:03;;;;;;;5.90;1.17;;;;;;;-148.88;80.05;75182.13;5040048;28;20029;-81